createdAt,value
2022-08-12T00:02:27.094Z,100306.91
2022-08-12T00:05:12.912Z,100324.47
2022-08-12T00:07:59.185Z,100321.94
2022-08-12T00:10:44.846Z,100323.44
2022-08-12T00:13:31.753Z,100327.00
2022-08-12T00:16:17.603Z,100325.31
2022-08-12T00:19:03.426Z,100318.94
2022-08-12T00:21:50.439Z,100334.78
2022-08-12T00:24:39.851Z,100337.53
2022-08-12T00:27:27.531Z,100339.41
2022-08-12T00:30:31.286Z,100342.34
2022-08-12T00:33:17.430Z,100329.84
2022-08-12T00:36:10.059Z,100343.59
2022-08-12T00:39:04.395Z,100339.34
2022-08-12T00:41:50.755Z,100338.06
2022-08-12T00:44:19.496Z,100337.59
2022-08-12T00:46:51.861Z,100337.41
2022-08-12T00:49:21.362Z,100336.56
2022-08-12T00:52:06.614Z,100343.34
2022-08-12T00:54:52.207Z,100334.06
2022-08-12T00:57:37.355Z,100335.94
2022-08-12T01:00:11.460Z,100339.94
2022-08-12T01:02:43.264Z,100333.81
2022-08-12T01:05:32.097Z,100331.91
2022-08-12T01:08:18.576Z,100338.69
2022-08-12T01:11:05.781Z,100340.16
2022-08-12T01:13:37.167Z,100341.00
2022-08-12T01:16:07.651Z,100347.78
2022-08-12T01:18:37.113Z,100345.88
2022-08-12T01:21:17.351Z,100340.97
2022-08-12T01:24:28.114Z,100340.97
2022-08-12T01:26:59.668Z,100341.22
2022-08-12T01:29:32.630Z,100343.09
2022-08-12T01:32:05.587Z,100352.00
2022-08-12T01:34:38.953Z,100362.38
2022-08-12T01:37:09.515Z,100360.75
2022-08-12T01:40:32.028Z,100366.03
2022-08-12T01:42:46.015Z,100362.25
2022-08-12T01:45:14.777Z,100356.94
2022-08-12T01:48:13.504Z,100351.47
2022-08-12T01:51:00.423Z,100357.81
2022-08-12T01:53:50.798Z,100351.91
2022-08-12T01:56:22.087Z,100351.25
2022-08-12T01:59:12.313Z,100347.88
2022-08-12T02:01:40.867Z,100345.38
2022-08-12T02:05:17.475Z,100339.44
2022-08-12T02:08:27.903Z,100342.38
2022-08-12T02:11:17.402Z,100336.28
2022-08-12T02:14:03.346Z,100335.84
2022-08-12T02:16:47.242Z,100335.00
2022-08-12T02:19:29.089Z,100336.94
2022-08-12T02:22:14.837Z,100335.44
2022-08-12T02:24:44.098Z,100343.31
2022-08-12T02:27:13.629Z,100332.94
2022-08-12T02:29:41.425Z,100332.72
2022-08-12T02:32:09.037Z,100324.28
2022-08-12T02:34:37.863Z,100329.34
2022-08-12T02:37:05.828Z,100335.28
2022-08-12T02:39:34.528Z,100334.44
2022-08-12T02:42:03.966Z,100334.00
2022-08-12T02:44:38.331Z,100343.09
2022-08-12T02:47:06.567Z,100344.78
2022-08-12T02:49:41.963Z,100341.41
2022-08-12T02:52:09.656Z,100332.31
2022-08-12T02:54:37.775Z,100344.16
2022-08-12T02:57:06.345Z,100341.19
2022-08-12T02:59:35.702Z,100341.00
2022-08-12T03:02:03.704Z,100347.13
2022-08-12T03:04:44.120Z,100357.06
2022-08-12T03:07:45.918Z,100366.78
2022-08-12T03:10:36.572Z,100364.66
2022-08-12T03:13:07.491Z,100370.16
2022-08-12T03:15:35.954Z,100371.66
2022-08-12T03:18:26.179Z,100369.78
2022-08-12T03:20:58.250Z,100381.41
2022-08-12T03:23:30.078Z,100379.72
2022-08-12T03:26:01.996Z,100383.97
2022-08-12T03:28:50.731Z,100393.66
2022-08-12T03:31:33.816Z,100387.97
2022-08-12T03:34:10.756Z,100388.59
2022-08-12T03:36:41.334Z,100390.91
2022-08-12T03:39:18.414Z,100395.13
2022-08-12T03:42:07.687Z,100383.50
2022-08-12T03:45:16.704Z,100394.28
2022-08-12T03:48:40.515Z,100393.66
2022-08-12T03:51:26.708Z,100390.25
2022-08-12T03:54:13.038Z,100389.81
2022-08-12T03:57:05.810Z,100398.91
2022-08-12T03:59:51.452Z,100408.44
2022-08-12T04:02:18.811Z,100401.03
2022-08-12T04:04:46.755Z,100390.25
2022-08-12T04:07:16.481Z,100391.50
2022-08-12T04:09:45.909Z,100397.81
2022-08-12T04:12:35.738Z,100398.22
2022-08-12T04:15:05.468Z,100398.41
2022-08-12T04:17:33.973Z,100397.34
2022-08-12T04:20:01.411Z,100400.94
2022-08-12T04:22:30.930Z,100406.03
2022-08-12T04:25:01.422Z,100398.56
2022-08-12T04:27:31.650Z,100402.38
2022-08-12T04:30:29.374Z,100406.59
2022-08-12T04:32:50.178Z,100405.09
2022-08-12T04:35:18.536Z,100411.44
2022-08-12T04:37:58.676Z,100415.91
2022-08-12T04:40:31.061Z,100429.28
2022-08-12T04:43:01.717Z,100424.84
2022-08-12T04:45:31.413Z,100434.00
2022-08-12T04:47:59.591Z,100445.00
2022-08-12T04:50:35.925Z,100444.81
2022-08-12T04:53:08.280Z,100458.19
2022-08-12T04:55:38.054Z,100465.38
2022-08-12T04:58:08.356Z,100477.25
2022-08-12T05:00:39.785Z,100477.00
2022-08-12T05:03:07.584Z,100474.69
2022-08-12T05:05:36.516Z,100476.59
2022-08-12T05:08:05.091Z,100484.44
2022-08-12T05:10:35.993Z,100479.38
2022-08-12T05:13:17.503Z,100477.22
2022-08-12T05:16:03.639Z,100479.34
2022-08-12T05:18:39.395Z,100480.13
2022-08-12T05:21:07.905Z,100474.34
2022-08-12T05:23:39.249Z,100481.47
2022-08-12T05:26:07.138Z,100480.75
2022-08-12T05:28:34.922Z,100488.06
2022-08-12T05:31:02.247Z,100493.97
2022-08-12T05:33:37.647Z,100485.69
2022-08-12T05:36:07.802Z,100495.19
2022-08-12T05:38:55.219Z,100492.00
2022-08-12T05:41:30.836Z,100488.38
2022-08-12T05:43:59.472Z,100489.88
2022-08-12T05:46:28.298Z,100493.28
2022-08-12T05:48:56.370Z,100494.97
2022-08-12T05:51:40.646Z,100492.63
2022-08-12T05:54:10.225Z,100504.34
2022-08-12T05:56:37.768Z,100507.34
2022-08-12T05:59:07.699Z,100500.81
2022-08-12T06:02:09.720Z,100504.22
2022-08-12T06:04:22.815Z,100515.09
2022-08-12T06:06:53.483Z,100511.13
2022-08-12T06:09:22.959Z,100516.06
2022-08-12T06:12:04.739Z,100508.69
2022-08-12T06:14:36.771Z,100498.97
2022-08-12T06:17:07.622Z,100491.19
2022-08-12T06:20:27.432Z,100484.84
2022-08-12T06:22:22.953Z,100487.19
2022-08-12T06:24:52.966Z,100490.41
2022-08-12T06:27:21.688Z,100483.16
2022-08-12T06:30:08.582Z,100491.38
2022-08-12T06:32:51.836Z,100489.00
2022-08-12T06:35:47.800Z,100479.19
2022-08-12T06:38:24.061Z,100480.81
2022-08-12T06:41:17.959Z,100471.25
2022-08-12T06:44:05.959Z,100467.84
2022-08-12T06:46:36.917Z,100456.22
2022-08-12T06:49:04.733Z,100461.50
2022-08-12T06:51:32.708Z,100464.69
2022-08-12T06:54:01.018Z,100465.81
2022-08-12T06:57:00.172Z,100464.38
2022-08-12T06:59:22.361Z,100453.25
2022-08-12T07:01:51.539Z,100446.31
2022-08-12T07:04:37.997Z,100446.53
2022-08-12T07:07:10.355Z,100440.22
2022-08-12T07:10:06.907Z,100442.09
2022-08-12T07:12:32.421Z,100422.00
2022-08-12T07:15:02.193Z,100419.47
2022-08-12T07:17:36.263Z,100409.94
2022-08-12T07:20:05.985Z,100415.03
2022-08-12T07:22:34.148Z,100399.56
2022-08-12T07:25:20.416Z,100403.41
2022-08-12T07:27:47.904Z,100396.84
2022-08-12T07:30:15.304Z,100404.03
2022-08-12T07:32:49.833Z,100403.59
2022-08-12T07:35:19.769Z,100400.41
2022-08-12T07:37:50.355Z,100402.06
2022-08-12T07:40:19.068Z,100408.41
2022-08-12T07:42:47.008Z,100417.06
2022-08-12T07:45:14.651Z,100421.69
2022-08-12T07:47:43.517Z,100418.94
2022-08-12T07:50:13.528Z,100426.59
2022-08-12T07:52:43.761Z,100428.69
2022-08-12T07:55:12.536Z,100430.59
2022-08-12T07:57:54.257Z,100448.09
2022-08-12T08:00:24.300Z,100455.44
2022-08-12T08:02:53.544Z,100442.06
2022-08-12T08:05:23.259Z,100457.25
2022-08-12T08:07:53.410Z,100456.13
2022-08-12T08:10:21.146Z,100467.31
2022-08-12T08:12:54.862Z,100462.13
2022-08-12T08:16:02.938Z,100458.59
2022-08-12T08:18:27.622Z,100453.50
2022-08-12T08:20:58.989Z,100455.84
2022-08-12T08:23:47.031Z,100468.16
2022-08-12T08:26:24.969Z,100447.84
2022-08-12T08:28:54.672Z,100470.00
2022-08-12T08:31:22.099Z,100452.22
2022-08-12T08:34:09.167Z,100460.06
2022-08-12T08:36:39.493Z,100449.13
2022-08-12T08:39:08.175Z,100458.25
2022-08-12T08:42:17.698Z,100456.06
2022-08-12T08:44:43.914Z,100468.16
2022-08-12T08:47:12.946Z,100466.03
2022-08-12T08:49:43.294Z,100486.09
2022-08-12T08:52:11.593Z,100480.34
2022-08-12T08:54:38.968Z,100505.56
2022-08-12T08:57:08.392Z,100486.06
2022-08-12T08:59:36.330Z,100488.22
2022-08-12T09:02:04.587Z,100480.09
2022-08-12T09:07:51.944Z,100480.38
2022-08-12T09:10:23.301Z,100480.88
2022-08-12T09:13:23.161Z,100474.53
2022-08-12T09:15:55.918Z,100487.06
2022-08-12T09:21:14.790Z,100460.47
2022-08-12T09:23:59.321Z,100474.69
2022-08-12T09:26:32.187Z,100467.41
2022-08-12T09:29:11.987Z,100469.72
2022-08-12T09:32:02.913Z,100468.91
2022-08-12T09:34:33.890Z,100476.97
2022-08-12T09:37:19.661Z,100490.34
2022-08-12T09:40:00.948Z,100474.81
2022-08-12T09:43:11.122Z,100478.41
2022-08-12T09:46:06.155Z,100483.69
2022-08-12T09:48:24.332Z,100474.22
2022-08-12T09:50:55.586Z,100482.16
2022-08-12T09:53:35.989Z,100487.09
2022-08-12T09:56:58.097Z,100497.56
2022-08-12T09:59:01.000Z,100481.31
2022-08-12T10:01:35.519Z,100490.00
2022-08-12T10:04:19.392Z,100493.22
2022-08-12T10:06:55.371Z,100469.03
2022-08-12T10:09:28.226Z,100499.94
2022-08-12T10:12:14.775Z,100488.38
2022-08-12T10:15:00.872Z,100493.38
2022-08-12T10:17:28.741Z,100489.22
2022-08-12T10:19:59.720Z,100492.28
2022-08-12T10:22:39.881Z,100482.59
2022-08-12T10:26:38.185Z,100492.22
2022-08-12T10:28:39.244Z,100478.09
2022-08-12T10:31:16.667Z,100478.00
2022-08-12T10:34:05.372Z,100471.66
2022-08-12T10:36:42.588Z,100481.84
2022-08-12T10:40:00.955Z,100478.94
2022-08-12T10:42:29.566Z,100479.47
2022-08-12T10:45:18.362Z,100479.50
2022-08-12T10:48:07.324Z,100474.28
2022-08-12T10:51:00.444Z,100476.66
2022-08-12T10:53:44.986Z,100486.75
2022-08-12T10:56:17.973Z,100476.88
2022-08-12T10:58:47.209Z,100486.31
2022-08-12T11:04:27.908Z,100492.47
2022-08-12T11:04:31.665Z,100490.22
2022-08-12T11:08:37.894Z,100493.19
2022-08-12T11:10:00.035Z,100497.44
2022-08-12T11:12:55.409Z,100511.41
2022-08-12T11:15:33.090Z,100503.47
2022-08-12T11:18:19.290Z,100507.78
2022-08-12T11:20:48.128Z,100510.31
2022-08-12T11:23:25.405Z,100510.16
2022-08-12T11:26:07.983Z,100532.44
2022-08-12T11:28:40.898Z,100507.13
2022-08-12T11:31:12.402Z,100518.94
2022-08-12T11:34:05.048Z,100524.00
2022-08-12T11:36:39.416Z,100536.22
2022-08-12T11:39:09.960Z,100521.38
2022-08-12T11:41:43.685Z,100525.03
2022-08-12T11:44:37.328Z,100541.72
2022-08-12T11:47:04.030Z,100521.00
2022-08-12T11:49:38.776Z,100530.78
2022-08-12T11:52:27.899Z,100515.06
2022-08-12T11:54:59.102Z,100526.31
2022-08-12T11:58:18.274Z,100522.97
2022-08-12T12:03:18.173Z,100527.06
2022-08-12T12:05:54.733Z,100530.66
2022-08-12T12:08:40.879Z,100530.34
2022-08-12T12:11:10.506Z,100533.38
2022-08-12T12:14:08.775Z,100543.28
2022-08-12T12:16:37.739Z,100532.44
2022-08-12T12:19:11.972Z,100534.97
2022-08-12T12:21:47.085Z,100538.19
2022-08-12T12:24:22.195Z,100531.03
2022-08-12T12:27:00.745Z,100518.94
2022-08-12T12:30:18.340Z,100521.91
2022-08-12T12:32:28.884Z,100511.31
2022-08-12T12:36:19.770Z,100501.69
2022-08-12T12:38:12.848Z,100499.06
2022-08-12T12:40:45.908Z,100498.56
2022-08-12T12:43:42.856Z,100496.75
2022-08-12T12:46:14.628Z,100496.84
2022-08-12T12:48:44.703Z,100490.16
2022-08-12T12:51:48.313Z,100496.44
2022-08-12T12:54:09.715Z,100483.16
2022-08-12T12:56:40.629Z,100485.53
2022-08-12T12:59:54.861Z,100487.81
2022-08-12T13:01:56.286Z,100481.50
2022-08-12T13:04:24.781Z,100486.75
2022-08-12T13:07:08.687Z,100490.16
2022-08-12T13:09:36.962Z,100488.38
2022-08-12T13:12:10.451Z,100485.84
2022-08-12T13:14:40.104Z,100486.59
2022-08-12T13:17:14.863Z,100490.78
2022-08-12T13:19:49.841Z,100489.59
2022-08-12T13:22:23.855Z,100491.44
2022-08-12T13:24:57.546Z,100485.84
2022-08-12T13:27:35.685Z,100490.56
2022-08-12T13:30:12.551Z,100487.44
2022-08-12T13:32:57.538Z,100485.59
2022-08-12T13:35:33.702Z,100489.69
2022-08-12T13:38:15.100Z,100485.25
2022-08-12T13:40:58.640Z,100473.81
2022-08-12T13:43:40.148Z,100483.34
2022-08-12T13:46:12.311Z,100495.78
2022-08-12T13:48:45.070Z,100470.34
2022-08-12T13:51:14.554Z,100480.72
2022-08-12T13:53:59.099Z,100479.59
2022-08-12T13:56:35.249Z,100492.97
2022-08-12T13:59:07.800Z,100474.84
2022-08-12T14:01:40.524Z,100485.63
2022-08-12T14:04:12.020Z,100489.06
2022-08-12T14:06:40.982Z,100483.88
2022-08-12T14:09:17.985Z,100480.22
2022-08-12T14:11:58.865Z,100481.91
2022-08-12T14:14:31.711Z,100473.25
2022-08-12T14:17:10.353Z,100481.28
2022-08-12T14:20:00.718Z,100482.38
2022-08-12T14:22:38.198Z,100475.81
2022-08-12T14:25:06.428Z,100475.63
2022-08-12T14:28:03.343Z,100465.31
2022-08-12T14:30:29.199Z,100476.75
2022-08-12T14:32:58.677Z,100490.22
2022-08-12T14:35:41.103Z,100489.75
2022-08-12T14:38:26.338Z,100490.59
2022-08-12T14:41:07.397Z,100489.47
2022-08-12T14:43:59.302Z,100507.13
2022-08-12T14:46:28.587Z,100490.22
2022-08-12T14:48:56.099Z,100491.47
2022-08-12T14:52:44.082Z,100485.72
2022-08-12T14:57:20.404Z,100476.78
2022-08-12T15:00:11.174Z,100472.13
2022-08-12T15:02:41.119Z,100474.03
2022-08-12T15:05:09.266Z,100472.72
2022-08-12T15:07:50.055Z,100466.44
2022-08-12T15:10:25.366Z,100471.63
2022-08-12T15:13:08.022Z,100465.38
2022-08-12T15:15:43.826Z,100466.09
2022-08-12T15:18:21.038Z,100457.41
2022-08-12T15:20:54.675Z,100453.63
2022-08-12T15:23:24.145Z,100456.00
2022-08-12T15:26:02.361Z,100453.03
2022-08-12T15:28:34.904Z,100444.78
2022-08-12T15:31:21.773Z,100454.34
2022-08-12T15:33:53.452Z,100441.41
2022-08-12T15:36:50.223Z,100441.22
2022-08-12T15:39:16.752Z,100454.34
2022-08-12T15:41:49.982Z,100444.34
2022-08-12T15:44:37.878Z,100441.59
2022-08-12T15:47:19.269Z,100432.66
2022-08-12T15:50:00.869Z,100432.00
2022-08-12T15:52:37.046Z,100433.50
2022-08-12T15:55:11.703Z,100437.72
2022-08-12T15:57:46.936Z,100431.31
2022-08-12T16:00:33.878Z,100443.16
2022-08-12T16:03:14.187Z,100441.84
2022-08-12T16:06:19.506Z,100443.16
2022-08-12T16:08:42.417Z,100440.16
2022-08-12T16:11:18.841Z,100437.81
2022-08-12T16:13:47.096Z,100444.00
2022-08-12T16:16:23.958Z,100433.41
2022-08-12T16:18:59.585Z,100435.16
2022-08-12T16:21:51.991Z,100425.00
2022-08-12T16:24:20.457Z,100435.84
2022-08-12T16:26:54.071Z,100433.50
2022-08-12T16:29:49.449Z,100431.19
2022-08-12T16:32:36.283Z,100430.78
2022-08-12T16:35:16.431Z,100432.28
2022-08-12T16:38:25.423Z,100432.97
2022-08-12T16:40:57.247Z,100438.72
2022-08-12T16:43:35.434Z,100438.75
2022-08-12T16:46:31.812Z,100431.38
2022-08-12T16:49:09.060Z,100428.41
2022-08-12T16:51:46.900Z,100440.31
2022-08-12T16:54:17.277Z,100435.88
2022-08-12T16:56:54.562Z,100435.06
2022-08-12T16:59:30.831Z,100446.91
2022-08-12T17:02:33.457Z,100440.38
2022-08-12T17:05:06.426Z,100440.38
2022-08-12T17:07:43.468Z,100444.84
2022-08-12T17:10:18.548Z,100439.13
2022-08-12T17:13:53.131Z,100449.31
2022-08-12T17:16:41.706Z,100449.72
2022-08-12T17:20:02.433Z,100449.06
2022-08-12T17:22:21.799Z,100453.97
2022-08-12T17:24:55.874Z,100459.03
2022-08-12T17:27:35.153Z,100459.03
2022-08-12T17:30:07.452Z,100466.03
2022-08-12T17:32:53.370Z,100473.88
2022-08-12T17:35:36.980Z,100467.06
2022-08-12T17:38:11.849Z,100474.91
2022-08-12T17:40:49.890Z,100480.88
2022-08-12T17:43:55.559Z,100490.59
2022-08-12T17:46:33.240Z,100498.63
2022-08-12T17:49:06.600Z,100492.69
2022-08-12T17:52:02.694Z,100502.25
2022-08-12T17:54:34.649Z,100505.63
2022-08-12T17:57:16.230Z,100514.94
2022-08-12T17:59:47.722Z,100507.94
2022-08-12T18:02:18.005Z,100502.84
2022-08-12T18:05:04.948Z,100494.41
2022-08-12T18:07:48.051Z,100508.38
2022-08-12T18:10:44.190Z,100506.88
2022-08-12T18:13:40.971Z,100495.69
2022-08-12T18:16:13.472Z,100501.81
2022-08-12T18:18:51.308Z,100492.91
2022-08-12T18:22:01.542Z,100496.09
2022-08-12T18:24:29.593Z,100499.25
2022-08-12T18:26:57.733Z,100499.25
2022-08-12T18:29:41.871Z,100497.16
2022-08-12T18:32:35.069Z,100494.41
2022-08-12T18:35:17.576Z,100493.34
2022-08-12T18:37:53.349Z,100484.91
2022-08-12T18:40:40.604Z,100491.66
2022-08-12T18:43:15.250Z,100485.09
2022-08-12T18:45:56.983Z,100487.44
2022-08-12T18:51:55.514Z,100479.97
2022-08-12T18:54:36.502Z,100479.78
2022-08-12T18:57:16.151Z,100473.63
2022-08-12T19:00:02.495Z,100465.56
2022-08-12T19:02:38.403Z,100475.53
2022-08-12T19:05:53.367Z,100478.91
2022-08-12T19:08:13.983Z,100471.06
2022-08-12T19:10:50.398Z,100465.34
2022-08-12T19:13:39.542Z,100461.53
2022-08-12T19:16:18.142Z,100469.97
2022-08-12T19:18:52.083Z,100480.34
2022-08-12T19:21:22.244Z,100474.84
2022-08-12T19:24:09.902Z,100475.25
2022-08-12T19:26:38.812Z,100475.66
2022-08-12T19:29:11.709Z,100475.22
2022-08-12T19:31:57.960Z,100470.16
2022-08-12T19:35:32.835Z,100475.22
2022-08-12T19:38:04.173Z,100473.06
2022-08-12T19:40:32.771Z,100478.34
2022-08-12T19:43:20.481Z,100471.34
2022-08-12T19:45:51.621Z,100477.25
2022-08-12T19:48:21.008Z,100469.22
2022-08-12T19:50:53.386Z,100477.63
2022-08-12T19:53:27.677Z,100472.56
2022-08-12T19:55:57.508Z,100467.28
2022-08-12T19:58:25.769Z,100472.13
2022-08-12T20:00:55.671Z,100474.88
2022-08-12T20:03:38.847Z,100480.78
2022-08-12T20:06:16.089Z,100474.50
2022-08-12T20:08:55.914Z,100481.44
2022-08-12T20:12:11.726Z,100474.72
2022-08-12T20:14:28.188Z,100476.75
2022-08-12T20:17:02.261Z,100478.41
2022-08-12T20:20:02.696Z,100467.63
2022-08-12T20:22:29.981Z,100464.88
2022-08-12T20:25:05.376Z,100477.13
2022-08-12T20:28:03.007Z,100480.09
2022-08-12T20:30:37.758Z,100473.31
2022-08-12T20:33:18.558Z,100479.44
2022-08-12T20:36:13.394Z,100484.72
2022-08-12T20:38:40.059Z,100487.06
2022-08-12T20:41:17.447Z,100485.03
2022-08-12T20:43:52.096Z,100485.03
2022-08-12T20:46:20.594Z,100481.88
2022-08-12T20:48:55.235Z,100491.63
2022-08-12T20:51:27.552Z,100495.84
2022-08-12T20:53:59.240Z,100478.97
2022-08-12T20:56:33.397Z,100475.16
2022-08-12T20:59:14.667Z,100473.06
2022-08-12T21:01:48.585Z,100467.75
2022-08-12T21:04:36.665Z,100461.22
2022-08-12T21:07:09.101Z,100460.81
2022-08-12T21:09:49.083Z,100466.13
2022-08-12T21:12:24.689Z,100459.56
2022-08-12T21:15:16.973Z,100462.53
2022-08-12T21:18:11.170Z,100462.53
2022-08-12T21:20:50.297Z,100454.31
2022-08-12T21:23:21.692Z,100460.34
2022-08-12T21:26:01.048Z,100462.72
2022-08-12T21:28:31.516Z,100457.03
2022-08-12T21:32:37.681Z,100444.75
2022-08-12T21:34:07.186Z,100449.19
2022-08-12T21:36:39.764Z,100443.88
2022-08-12T21:39:18.691Z,100451.56
2022-08-12T21:41:51.873Z,100441.81
2022-08-12T21:44:24.555Z,100433.94
2022-08-12T21:47:21.009Z,100446.22
2022-08-12T21:50:03.341Z,100441.13
2022-08-12T21:52:36.829Z,100444.50
2022-08-12T21:55:08.447Z,100453.66
2022-08-12T21:57:54.772Z,100458.31
2022-08-12T22:00:35.053Z,100460.00
2022-08-12T22:04:06.041Z,100455.78
2022-08-12T22:06:43.251Z,100458.53
2022-08-12T22:09:16.063Z,100465.31
2022-08-12T22:11:59.215Z,100466.16
2022-08-12T22:14:28.771Z,100458.75
2022-08-12T22:17:00.466Z,100467.22
2022-08-12T22:19:28.951Z,100460.22
2022-08-12T22:22:04.005Z,100457.69
2022-08-12T22:24:33.558Z,100451.13
2022-08-12T22:27:22.890Z,100449.75
2022-08-12T22:30:16.118Z,100445.50
2022-08-12T22:32:49.533Z,100449.72
2022-08-12T22:35:56.239Z,100448.66
2022-08-12T22:38:25.113Z,100459.66
2022-08-12T22:41:01.102Z,100456.28
2022-08-12T22:44:00.605Z,100465.34
2022-08-12T22:46:53.090Z,100464.69
2022-08-12T22:49:49.054Z,100465.31
2022-08-12T22:52:23.306Z,100464.03
2022-08-12T22:55:03.161Z,100450.72
2022-08-12T22:57:49.014Z,100449.22
2022-08-12T23:00:24.524Z,100457.41
2022-08-12T23:03:03.373Z,100446.03
2022-08-12T23:05:57.799Z,100450.22
2022-08-12T23:08:22.842Z,100453.38
2022-08-12T23:10:51.248Z,100447.44
2022-08-12T23:13:43.097Z,100462.22
2022-08-12T23:16:27.978Z,100454.59
2022-08-12T23:19:01.873Z,100451.59
2022-08-12T23:22:03.832Z,100446.66
2022-08-12T23:24:30.186Z,100447.28
2022-08-12T23:27:18.073Z,100444.31
2022-08-12T23:30:19.298Z,100432.25
2022-08-12T23:32:37.010Z,100437.91
2022-08-12T23:35:07.039Z,100437.91
2022-08-12T23:37:47.299Z,100434.94
2022-08-12T23:40:22.548Z,100435.53
2022-08-12T23:42:55.023Z,100447.31
2022-08-12T23:45:30.809Z,100442.69
2022-08-12T23:48:03.383Z,100450.91
2022-08-12T23:50:34.048Z,100452.81
2022-08-12T23:53:06.581Z,100445.59
2022-08-12T23:55:45.763Z,100439.53
2022-08-12T23:58:20.692Z,100448.16
